aviador You're here:

YPCC Decoded Metar

COCOS ISL INTL A in AUSTRALIA
Report Time2017-07-21 02:30:00
UTC Time2017-07-21 02:54:26
Flight Rules vfr VFR
Wind130° at 19 kt
W.Decomp.*RWY 15: 18.2 kt HW 5.6 kt LCW
W.Rank130° ranks 3
Current wind is above 130° avg. (12.8)
Visibility9999 m
Phenomena:Vicinity showers
Clouds:Scattered 019 Hf
Scattered 023 Hf
Expected CloudBase > 2,000 ft AGL from Temp-Dew spread
CeilingNone
Temp26°C (ISA +11)
Dew Point21°C (74% RH)
AAT23.3°C
QNH1015 hPa
Density Alt1,542 ft
Elevation10 ft
Report Wrong Elevation
Raw Report
YPCC 210230Z 13019KT 9999 VCSH SCT019 SCT023 26/21 Q1015=

Extra information for YPCC:More info

Metar Taf Metar & Taf Last 4 Metars F.Rules Stats Wind Profile Meteogram Temp Stats Airport Information Weather charts Add Link Nearby VenuesMetar ALERT Operation Metar Decoded Social comments